createdAt,value
2023-05-08T00:00:04.836Z,1017.37
2023-05-08T00:01:04.848Z,1017.39
2023-05-08T00:02:04.851Z,1017.35
2023-05-08T00:03:04.231Z,1017.38
2023-05-08T00:04:04.334Z,1017.35
2023-05-08T00:05:04.277Z,1017.34
2023-05-08T00:06:04.105Z,1017.35
2023-05-08T00:07:04.785Z,1017.34
2023-05-08T00:08:04.768Z,1017.31
2023-05-08T00:09:04.089Z,1017.28
2023-05-08T00:10:04.729Z,1017.30
2023-05-08T00:11:04.759Z,1017.30
2023-05-08T00:12:04.743Z,1017.31
2023-05-08T00:13:04.183Z,1017.30
2023-05-08T00:14:04.698Z,1017.33
2023-05-08T00:15:04.679Z,1017.28
2023-05-08T00:16:04.708Z,1017.29
2023-05-08T00:17:04.749Z,1017.30
2023-05-08T00:18:04.016Z,1017.29
2023-05-08T00:19:04.627Z,1017.26
2023-05-08T00:20:03.945Z,1017.30
2023-05-08T00:21:03.953Z,1017.23
2023-05-08T00:22:04.613Z,1017.22
2023-05-08T00:23:04.625Z,1017.24
2023-05-08T00:24:04.584Z,1017.20
2023-05-08T00:25:04.590Z,1017.23
2023-05-08T00:26:03.882Z,1017.19
2023-05-08T00:27:03.877Z,1017.27
2023-05-08T00:28:03.882Z,1017.27
2023-05-08T00:29:06.413Z,1017.29
2023-05-08T00:30:04.529Z,1017.29
2023-05-08T00:31:04.529Z,1017.34
2023-05-08T00:32:03.850Z,1017.31
2023-05-08T00:33:03.897Z,1017.30
2023-05-08T00:34:04.490Z,1017.34
2023-05-08T00:35:04.482Z,1017.30
2023-05-08T00:36:04.464Z,1017.37
2023-05-08T00:37:04.473Z,1017.30
2023-05-08T00:38:04.427Z,1017.32
2023-05-08T00:39:03.752Z,1017.29
2023-05-08T00:40:03.734Z,1017.32
2023-05-08T00:41:04.407Z,1017.33
2023-05-08T00:42:04.380Z,1017.35
2023-05-08T00:43:03.727Z,1017.32
2023-05-08T00:44:03.688Z,1017.29
2023-05-08T00:45:04.366Z,1017.37
2023-05-08T00:46:04.411Z,1017.34
2023-05-08T00:47:04.328Z,1017.36
2023-05-08T00:48:04.391Z,1017.33
2023-05-08T00:49:04.331Z,1017.35
2023-05-08T00:50:04.314Z,1017.33
2023-05-08T00:51:03.631Z,1017.35
2023-05-08T00:52:04.279Z,1017.32
2023-05-08T00:53:03.655Z,1017.36
2023-05-08T00:54:05.028Z,1017.35
2023-05-08T00:55:03.589Z,1017.35
2023-05-08T00:56:03.560Z,1017.33
2023-05-08T00:57:03.607Z,1017.32
2023-05-08T00:58:03.545Z,1017.30
2023-05-08T00:59:04.230Z,1017.31
2023-05-08T01:00:03.521Z,1017.32
2023-05-08T01:01:04.204Z,1017.26
2023-05-08T01:02:03.504Z,1017.29
2023-05-08T01:03:04.236Z,1017.28
2023-05-08T01:04:04.164Z,1017.30
2023-05-08T01:05:04.183Z,1017.31
2023-05-08T01:06:04.123Z,1017.26
2023-05-08T01:07:04.132Z,1017.29
2023-05-08T01:08:03.453Z,1017.29
2023-05-08T01:09:04.133Z,1017.25
2023-05-08T01:10:04.092Z,1017.30
2023-05-08T01:11:04.088Z,1017.28
2023-05-08T01:12:04.092Z,1017.26
2023-05-08T01:13:03.455Z,1017.24
2023-05-08T01:14:03.406Z,1017.24
2023-05-08T01:15:04.030Z,1017.19
2023-05-08T01:16:04.094Z,1017.25
2023-05-08T01:17:04.028Z,1017.23
2023-05-08T01:18:04.160Z,1017.24
2023-05-08T01:19:03.331Z,1017.20
2023-05-08T01:20:03.318Z,1017.23
2023-05-08T01:21:03.984Z,1017.26
2023-05-08T01:22:03.969Z,1017.25
2023-05-08T01:23:03.964Z,1017.29
2023-05-08T01:24:03.932Z,1017.27
2023-05-08T01:25:03.274Z,1017.26
2023-05-08T01:26:03.938Z,1017.25
2023-05-08T01:27:03.919Z,1017.26
2023-05-08T01:28:03.916Z,1017.24
2023-05-08T01:29:03.877Z,1017.25
2023-05-08T01:30:03.205Z,1017.23
2023-05-08T01:31:03.196Z,1017.21
2023-05-08T01:32:04.175Z,1017.22
2023-05-08T01:33:03.236Z,1017.27
2023-05-08T01:34:03.894Z,1017.22
2023-05-08T01:35:04.110Z,1017.17
2023-05-08T01:36:03.139Z,1017.20
2023-05-08T01:37:03.131Z,1017.19
2023-05-08T01:38:04.072Z,1017.18
2023-05-08T01:39:03.781Z,1017.17
2023-05-08T01:40:03.777Z,1017.15
2023-05-08T01:41:03.769Z,1017.17
2023-05-08T01:42:03.104Z,1017.12
2023-05-08T01:43:04.015Z,1017.15
2023-05-08T01:44:03.738Z,1017.14
2023-05-08T01:45:03.718Z,1017.19
2023-05-08T01:46:03.708Z,1017.18
2023-05-08T01:47:03.037Z,1017.17
2023-05-08T01:48:03.072Z,1017.14
2023-05-08T01:49:03.002Z,1017.16
2023-05-08T01:50:03.664Z,1017.15
2023-05-08T01:51:03.674Z,1017.18
2023-05-08T01:52:03.627Z,1017.18
2023-05-08T01:53:02.967Z,1017.22
2023-05-08T01:54:02.937Z,1017.23
2023-05-08T01:55:03.608Z,1017.24
2023-05-08T01:56:03.602Z,1017.28
2023-05-08T01:57:03.565Z,1017.28
2023-05-08T01:58:03.572Z,1017.28
2023-05-08T01:59:03.558Z,1017.30
2023-05-08T02:00:02.862Z,1017.36
2023-05-08T02:01:03.574Z,1017.30
2023-05-08T02:02:03.115Z,1017.33
2023-05-08T02:03:03.547Z,1017.36
2023-05-08T02:04:02.838Z,1017.39
2023-05-08T02:05:03.495Z,1017.34
2023-05-08T02:06:02.820Z,1017.37
2023-05-08T02:07:03.462Z,1017.39
2023-05-08T02:08:02.814Z,1017.37
2023-05-08T02:09:03.454Z,1017.40
2023-05-08T02:10:02.755Z,1017.35
2023-05-08T02:11:02.772Z,1017.37
2023-05-08T02:12:03.682Z,1017.39
2023-05-08T02:13:03.459Z,1017.43
2023-05-08T02:14:02.742Z,1017.45
2023-05-08T02:15:03.390Z,1017.43
2023-05-08T02:16:03.370Z,1017.43
2023-05-08T02:17:02.912Z,1017.44
2023-05-08T02:18:03.453Z,1017.48
2023-05-08T02:19:03.344Z,1017.45
2023-05-08T02:20:03.324Z,1017.43
2023-05-08T02:21:03.305Z,1017.45
2023-05-08T02:22:02.633Z,1017.42
2023-05-08T02:23:03.300Z,1017.39
2023-05-08T02:24:03.287Z,1017.45
2023-05-08T02:25:03.257Z,1017.43
2023-05-08T02:26:03.278Z,1017.41
2023-05-08T02:27:02.588Z,1017.40
2023-05-08T02:28:02.566Z,1017.37
2023-05-08T02:29:03.233Z,1017.40
2023-05-08T02:30:03.206Z,1017.39
2023-05-08T02:31:03.222Z,1017.35
2023-05-08T02:32:03.263Z,1017.34
2023-05-08T02:33:02.524Z,1017.34
2023-05-08T02:34:02.519Z,1017.34
2023-05-08T02:35:03.779Z,1017.33
2023-05-08T02:36:03.158Z,1017.34
2023-05-08T02:37:03.152Z,1017.37
2023-05-08T02:38:03.150Z,1017.33
2023-05-08T02:39:03.119Z,1017.32
2023-05-08T02:40:03.111Z,1017.35
2023-05-08T02:41:02.420Z,1017.35
2023-05-08T02:42:03.093Z,1017.34
2023-05-08T02:43:03.083Z,1017.37
2023-05-08T02:44:03.063Z,1017.37
2023-05-08T02:45:02.376Z,1017.41
2023-05-08T02:46:03.061Z,1017.39
2023-05-08T02:47:02.351Z,1017.35
2023-05-08T02:48:03.081Z,1017.36
2023-05-08T02:49:02.993Z,1017.36
2023-05-08T02:50:02.997Z,1017.38
2023-05-08T02:51:02.301Z,1017.40
2023-05-08T02:52:02.979Z,1017.37
2023-05-08T02:53:03.039Z,1017.39
2023-05-08T02:54:02.955Z,1017.34
2023-05-08T02:55:02.942Z,1017.30
2023-05-08T02:56:02.266Z,1017.33
2023-05-08T02:57:02.933Z,1017.24
2023-05-08T02:58:02.929Z,1017.26
2023-05-08T02:59:03.733Z,1017.23
2023-05-08T03:00:02.890Z,1017.21
2023-05-08T03:01:02.941Z,1017.21
2023-05-08T03:02:02.866Z,1017.18
2023-05-08T03:03:02.295Z,1017.23
2023-05-08T03:04:02.183Z,1017.23
2023-05-08T03:05:02.848Z,1017.23
2023-05-08T03:06:02.860Z,1017.26
2023-05-08T03:07:02.847Z,1017.24
2023-05-08T03:08:02.873Z,1017.24
2023-05-08T03:09:02.189Z,1017.21
2023-05-08T03:10:03.031Z,1017.19
2023-05-08T03:11:02.773Z,1017.18
2023-05-08T03:12:02.750Z,1017.19
2023-05-08T03:13:03.043Z,1017.17
2023-05-08T03:14:02.992Z,1017.12
2023-05-08T03:15:02.051Z,1017.16
2023-05-08T03:16:02.739Z,1017.19
2023-05-08T03:17:02.691Z,1017.15
2023-05-08T03:18:02.737Z,1017.17
2023-05-08T03:19:02.020Z,1017.14
2023-05-08T03:20:02.049Z,1017.17
2023-05-08T03:21:01.998Z,1017.20
2023-05-08T03:22:02.050Z,1017.23
2023-05-08T03:23:02.045Z,1017.19
2023-05-08T03:24:02.668Z,1017.16
2023-05-08T03:25:02.637Z,1017.19
2023-05-08T03:26:02.599Z,1017.13
2023-05-08T03:27:01.908Z,1017.18
2023-05-08T03:28:01.945Z,1017.15
2023-05-08T03:29:02.589Z,1017.11
2023-05-08T03:30:01.918Z,1017.07
2023-05-08T03:31:01.960Z,1017.10
2023-05-08T03:32:01.884Z,1017.14
2023-05-08T03:33:02.842Z,1017.12
2023-05-08T03:34:02.540Z,1017.13
2023-05-08T03:35:02.514Z,1017.12
2023-05-08T03:36:02.500Z,1017.13
2023-05-08T03:37:01.816Z,1017.12
2023-05-08T03:38:02.487Z,1017.16
2023-05-08T03:39:01.779Z,1017.14
2023-05-08T03:40:02.444Z,1017.15
2023-05-08T03:41:02.458Z,1017.17
2023-05-08T03:42:02.483Z,1017.16
2023-05-08T03:43:02.440Z,1017.19
2023-05-08T03:44:01.741Z,1017.17
2023-05-08T03:45:02.385Z,1017.22
2023-05-08T03:46:01.716Z,1017.18
2023-05-08T03:47:01.796Z,1017.24
2023-05-08T03:48:03.694Z,1017.26
2023-05-08T03:49:02.340Z,1017.26
2023-05-08T03:50:02.351Z,1017.27
2023-05-08T03:51:01.736Z,1017.29
2023-05-08T03:52:02.331Z,1017.30
2023-05-08T03:53:02.359Z,1017.26
2023-05-08T03:54:01.657Z,1017.30
2023-05-08T03:55:02.301Z,1017.29
2023-05-08T03:56:01.646Z,1017.30
2023-05-08T03:57:01.600Z,1017.31
2023-05-08T03:58:02.249Z,1017.29
2023-05-08T03:59:01.588Z,1017.28
2023-05-08T04:00:01.617Z,1017.30
2023-05-08T04:01:01.555Z,1017.33
2023-05-08T04:02:01.584Z,1017.24
2023-05-08T04:03:02.264Z,1017.27
2023-05-08T04:04:02.260Z,1017.25
2023-05-08T04:05:02.191Z,1017.28
2023-05-08T04:06:01.537Z,1017.26
2023-05-08T04:07:02.190Z,1017.26
2023-05-08T04:08:01.520Z,1017.27
2023-05-08T04:09:01.493Z,1017.26
2023-05-08T04:10:02.153Z,1017.28
2023-05-08T04:11:02.129Z,1017.22
2023-05-08T04:12:02.102Z,1017.23
2023-05-08T04:13:02.116Z,1017.24
2023-05-08T04:14:02.111Z,1017.23
2023-05-08T04:15:03.341Z,1017.27
2023-05-08T04:16:02.081Z,1017.34
2023-05-08T04:17:01.462Z,1017.33
2023-05-08T04:18:01.430Z,1017.28
2023-05-08T04:19:01.357Z,1017.30
2023-05-08T04:20:02.041Z,1017.31
2023-05-08T04:21:02.023Z,1017.38
2023-05-08T04:22:01.995Z,1017.36
2023-05-08T04:23:02.009Z,1017.42
2023-05-08T04:24:01.322Z,1017.44
2023-05-08T04:25:01.978Z,1017.42
2023-05-08T04:26:01.310Z,1017.40
2023-05-08T04:27:01.939Z,1017.42
2023-05-08T04:28:01.948Z,1017.42
2023-05-08T04:29:01.936Z,1017.42
2023-05-08T04:30:01.945Z,1017.42
2023-05-08T04:31:01.893Z,1017.38
2023-05-08T04:32:01.946Z,1017.45
2023-05-08T04:33:02.168Z,1017.46
2023-05-08T04:34:01.882Z,1017.46
2023-05-08T04:35:02.149Z,1017.46
2023-05-08T04:36:01.845Z,1017.49
2023-05-08T04:37:02.099Z,1017.56
2023-05-08T04:38:01.836Z,1017.53
2023-05-08T04:39:01.831Z,1017.54
2023-05-08T04:40:01.217Z,1017.59
2023-05-08T04:41:01.190Z,1017.59
2023-05-08T04:42:01.800Z,1017.59
2023-05-08T04:43:01.123Z,1017.59
2023-05-08T04:44:01.777Z,1017.58
2023-05-08T04:45:02.029Z,1017.54
2023-05-08T04:46:01.810Z,1017.52
2023-05-08T04:47:01.752Z,1017.50
2023-05-08T04:48:02.056Z,1017.47
2023-05-08T04:49:01.966Z,1017.46
2023-05-08T04:50:03.430Z,1017.43
2023-05-08T04:51:01.940Z,1017.45
2023-05-08T04:52:01.936Z,1017.49
2023-05-08T04:53:01.926Z,1017.52
2023-05-08T04:54:01.670Z,1017.46
2023-05-08T04:55:01.646Z,1017.37
2023-05-08T04:56:01.654Z,1017.46
2023-05-08T04:57:01.930Z,1017.41
2023-05-08T04:58:01.876Z,1017.40
2023-05-08T04:59:01.599Z,1017.53
2023-05-08T05:00:01.862Z,1017.61
2023-05-08T05:01:01.835Z,1017.54
2023-05-08T05:02:01.954Z,1017.45
2023-05-08T05:03:01.864Z,1017.53
2023-05-08T05:04:01.653Z,1017.55
2023-05-08T05:05:01.585Z,1017.57
2023-05-08T05:06:01.815Z,1017.57
2023-05-08T05:07:01.520Z,1017.60
2023-05-08T05:08:01.773Z,1017.64
2023-05-08T05:09:01.488Z,1017.64
2023-05-08T05:10:01.486Z,1017.64
2023-05-08T05:11:01.734Z,1017.63
2023-05-08T05:12:01.717Z,1017.65
2023-05-08T05:13:01.775Z,1017.67
2023-05-08T05:14:01.674Z,1017.65
2023-05-08T05:15:01.432Z,1017.68
2023-05-08T05:16:01.435Z,1017.74
2023-05-08T05:17:01.656Z,1017.73
2023-05-08T05:18:01.433Z,1017.76
2023-05-08T05:19:01.416Z,1017.74
2023-05-08T05:20:01.604Z,1017.72
2023-05-08T05:21:01.369Z,1017.73
2023-05-08T05:22:01.355Z,1017.70
2023-05-08T05:23:01.337Z,1017.73
2023-05-08T05:24:01.565Z,1017.74
2023-05-08T05:25:01.571Z,1017.72
2023-05-08T05:26:01.566Z,1017.76
2023-05-08T05:27:01.307Z,1017.72
2023-05-08T05:28:01.271Z,1017.75
2023-05-08T05:29:00.610Z,1017.74
2023-05-08T05:30:01.538Z,1017.75
2023-05-08T05:31:01.307Z,1017.73
2023-05-08T05:32:01.273Z,1017.74
2023-05-08T05:33:01.482Z,1017.71
2023-05-08T05:34:01.227Z,1017.67
2023-05-08T05:35:01.213Z,1017.71
2023-05-08T05:36:01.200Z,1017.70
2023-05-08T05:37:01.461Z,1017.69
2023-05-08T05:38:01.162Z,1017.69
2023-05-08T05:39:00.497Z,1017.66
2023-05-08T05:40:01.182Z,1017.66
2023-05-08T05:41:01.396Z,1017.62
2023-05-08T05:42:01.134Z,1017.67
2023-05-08T05:43:01.367Z,1017.68
2023-05-08T05:44:00.425Z,1017.68
2023-05-08T05:45:01.109Z,1017.64
2023-05-08T05:46:01.100Z,1017.68
2023-05-08T05:47:01.108Z,1017.67
2023-05-08T05:48:01.426Z,1017.69
2023-05-08T05:49:01.081Z,1017.68
2023-05-08T05:50:01.070Z,1017.72
2023-05-08T05:51:00.380Z,1017.72
2023-05-08T05:52:00.348Z,1017.70
2023-05-08T05:53:01.087Z,1017.71
2023-05-08T05:54:01.002Z,1017.73
2023-05-08T05:55:00.306Z,1017.74
2023-05-08T05:56:00.319Z,1017.77
2023-05-08T05:57:00.975Z,1017.78
2023-05-08T05:58:00.960Z,1017.76
2023-05-08T05:59:01.213Z,1017.76
2023-05-08T06:00:01.191Z,1017.76
2023-05-08T06:01:01.208Z,1017.82
2023-05-08T06:02:01.012Z,1017.82
2023-05-08T06:03:01.237Z,1017.83
2023-05-08T06:04:01.237Z,1017.84
2023-05-08T06:05:01.167Z,1017.86
2023-05-08T06:06:01.123Z,1017.85
2023-05-08T06:07:00.868Z,1017.87
2023-05-08T06:08:01.104Z,1017.89
2023-05-08T06:09:01.085Z,1017.89
2023-05-08T06:10:01.090Z,1017.83
2023-05-08T06:11:01.064Z,1017.87
2023-05-08T06:12:01.064Z,1017.84
2023-05-08T06:13:00.855Z,1017.82
2023-05-08T06:14:00.771Z,1017.81
2023-05-08T06:15:00.760Z,1017.78
2023-05-08T06:16:01.010Z,1017.79
2023-05-08T06:17:00.819Z,1017.81
2023-05-08T06:18:00.807Z,1017.83
2023-05-08T06:19:00.743Z,1017.84
2023-05-08T06:20:00.730Z,1017.81
2023-05-08T06:21:00.713Z,1017.82
2023-05-08T06:22:00.065Z,1017.82
2023-05-08T06:23:00.687Z,1017.82
2023-05-08T06:24:00.938Z,1017.81
2023-05-08T06:24:59.998Z,1017.84
2023-05-08T06:25:59.975Z,1017.80
2023-05-08T06:27:00.656Z,1017.79
2023-05-08T06:28:00.648Z,1017.82
2023-05-08T06:29:00.897Z,1017.82
2023-05-08T06:30:00.641Z,1017.79
2023-05-08T06:30:59.957Z,1017.77
2023-05-08T06:31:59.924Z,1017.80
2023-05-08T06:33:00.585Z,1017.80
2023-05-08T06:34:00.576Z,1017.79
2023-05-08T06:35:00.582Z,1017.76
2023-05-08T06:35:59.871Z,1017.78
2023-05-08T06:36:59.895Z,1017.76
2023-05-08T06:38:00.511Z,1017.81
2023-05-08T06:39:00.521Z,1017.80
2023-05-08T06:40:11.592Z,1017.83
2023-05-08T06:41:01.495Z,1017.86
2023-05-08T06:42:00.473Z,1018.06
2023-05-08T06:43:00.486Z,1018.07
2023-05-08T06:44:00.488Z,1018.03
2023-05-08T06:45:00.464Z,1018.08
2023-05-08T06:46:00.531Z,1018.43
2023-05-08T06:46:59.770Z,1018.55
2023-05-08T06:47:59.771Z,1018.51
2023-05-08T06:49:00.423Z,1018.54
2023-05-08T06:50:00.405Z,1018.60
2023-05-08T06:50:59.729Z,1018.61
2023-05-08T06:52:00.367Z,1018.52
2023-05-08T06:52:59.708Z,1018.46
2023-05-08T06:54:00.367Z,1018.43
2023-05-08T06:55:00.360Z,1018.36
2023-05-08T06:56:00.325Z,1018.33
2023-05-08T06:57:00.327Z,1018.34
2023-05-08T06:58:00.316Z,1018.47
2023-05-08T06:59:07.958Z,1018.49
2023-05-08T07:00:01.561Z,1018.47
2023-05-08T07:00:59.621Z,1018.37
2023-05-08T07:01:59.608Z,1018.35
2023-05-08T07:03:00.317Z,1018.31
2023-05-08T07:03:59.587Z,1018.23
2023-05-08T07:05:00.364Z,1018.34
2023-05-08T07:05:59.566Z,1018.40
2023-05-08T07:07:00.221Z,1018.36
2023-05-08T07:08:00.201Z,1018.21
2023-05-08T07:09:00.198Z,1018.09
2023-05-08T07:10:00.224Z,1018.12
2023-05-08T07:10:59.500Z,1018.18
2023-05-08T07:11:59.477Z,1018.22
2023-05-08T07:13:00.213Z,1018.13
2023-05-08T07:13:59.443Z,1018.20
2023-05-08T07:15:40.879Z,1018.22
2023-05-08T07:16:01.357Z,1018.15
2023-05-08T07:16:59.412Z,1018.09
2023-05-08T07:18:00.178Z,1018.15
2023-05-08T07:19:00.079Z,1018.08
2023-05-08T07:20:00.069Z,1018.11
2023-05-08T07:21:00.060Z,1018.03
2023-05-08T07:21:59.401Z,1018.01
2023-05-08T07:23:00.051Z,1018.03
2023-05-08T07:24:00.015Z,1018.01
2023-05-08T07:25:00.029Z,1018.06
2023-05-08T07:26:00.013Z,1018.01
2023-05-08T07:27:00.016Z,1018.02
2023-05-08T07:28:01.134Z,1018.01
2023-05-08T07:28:59.301Z,1018.04
2023-05-08T07:29:59.276Z,1018.06
2023-05-08T07:30:59.967Z,1018.07
2023-05-08T07:32:00.025Z,1018.07
2023-05-08T07:32:59.949Z,1018.01
2023-05-08T07:33:59.916Z,1018.03
2023-05-08T07:35:00.181Z,1018.03
2023-05-08T07:35:59.906Z,1017.99
2023-05-08T07:36:59.896Z,1018.05
2023-05-08T07:37:59.209Z,1018.04
2023-05-08T07:38:59.882Z,1018.02
2023-05-08T07:39:59.857Z,1018.02
2023-05-08T07:40:59.152Z,1018.04
2023-05-08T07:41:59.841Z,1018.03
2023-05-08T07:42:59.811Z,1018.03
2023-05-08T07:43:59.812Z,1018.02
2023-05-08T07:44:59.113Z,1018.04
2023-05-08T07:45:59.097Z,1018.09
2023-05-08T07:46:59.144Z,1018.08
2023-05-08T07:47:59.798Z,1018.04
2023-05-08T07:48:59.757Z,1018.03
2023-05-08T07:49:59.050Z,1018.05
2023-05-08T07:50:59.038Z,1018.08
2023-05-08T07:51:59.702Z,1018.10
2023-05-08T07:52:59.713Z,1018.11
2023-05-08T07:53:59.711Z,1018.07
2023-05-08T07:54:59.693Z,1018.07
2023-05-08T07:55:59.000Z,1018.13
2023-05-08T07:56:59.666Z,1018.10
2023-05-08T07:57:59.669Z,1018.12
2023-05-08T07:58:59.653Z,1018.07
2023-05-08T07:59:59.638Z,1018.02
2023-05-08T08:00:59.621Z,1018.06
2023-05-08T08:01:59.628Z,1018.11
2023-05-08T08:02:58.985Z,1018.07
2023-05-08T08:03:59.700Z,1018.06
2023-05-08T08:04:59.578Z,1018.07
2023-05-08T08:05:59.555Z,1018.06
2023-05-08T08:06:59.574Z,1018.05
2023-05-08T08:07:58.845Z,1018.09
2023-05-08T08:08:58.852Z,1018.05
2023-05-08T08:09:59.522Z,1018.07
2023-05-08T08:11:00.848Z,1018.10
2023-05-08T08:11:59.503Z,1018.09
2023-05-08T08:12:59.533Z,1018.09
2023-05-08T08:13:59.502Z,1018.08
2023-05-08T08:14:58.796Z,1018.05
2023-05-08T08:15:59.451Z,1018.07
2023-05-08T08:16:59.508Z,1018.10
2023-05-08T08:17:59.498Z,1018.10
2023-05-08T08:18:58.736Z,1018.10
2023-05-08T08:19:59.408Z,1018.10
2023-05-08T08:20:58.716Z,1018.12
2023-05-08T08:21:58.722Z,1018.09
2023-05-08T08:22:59.396Z,1018.14
2023-05-08T08:23:58.684Z,1018.14
2023-05-08T08:24:58.687Z,1018.11
2023-05-08T08:25:58.663Z,1018.17
2023-05-08T08:26:59.335Z,1018.15
2023-05-08T08:27:59.334Z,1018.16
2023-05-08T08:28:59.333Z,1018.14
2023-05-08T08:30:12.171Z,1018.17
2023-05-08T08:30:59.642Z,1018.15
2023-05-08T08:31:58.607Z,1018.21
2023-05-08T08:32:59.311Z,1018.16
2023-05-08T08:33:59.248Z,1018.14
2023-05-08T08:34:59.259Z,1018.15
2023-05-08T08:35:59.249Z,1018.13
2023-05-08T08:36:59.234Z,1018.12
2023-05-08T08:37:58.533Z,1018.19
2023-05-08T08:38:58.550Z,1018.14
2023-05-08T08:39:59.205Z,1018.14
2023-05-08T08:40:59.194Z,1018.15
2023-05-08T08:41:58.506Z,1018.19
2023-05-08T08:42:58.479Z,1018.16
2023-05-08T08:43:58.484Z,1018.16
2023-05-08T08:44:59.151Z,1018.14
2023-05-08T08:45:59.201Z,1018.09
2023-05-08T08:46:59.122Z,1018.11
2023-05-08T08:47:59.137Z,1018.15
2023-05-08T08:48:58.418Z,1018.16
2023-05-08T08:49:59.090Z,1018.17
2023-05-08T08:50:59.082Z,1018.17
2023-05-08T08:51:58.414Z,1018.16
2023-05-08T08:52:58.390Z,1018.19
2023-05-08T08:53:58.352Z,1018.24
2023-05-08T08:54:59.032Z,1018.17
2023-05-08T08:55:58.330Z,1018.23
2023-05-08T08:56:58.993Z,1018.17
2023-05-08T08:57:58.982Z,1018.21
2023-05-08T08:58:58.994Z,1018.18
2023-05-08T08:59:59.023Z,1018.18
2023-05-08T09:00:58.973Z,1018.18
2023-05-08T09:01:58.994Z,1018.21
2023-05-08T09:02:59.049Z,1018.16
2023-05-08T09:03:59.164Z,1018.14
2023-05-08T09:04:58.921Z,1018.16
2023-05-08T09:05:58.897Z,1018.14
2023-05-08T09:06:58.885Z,1018.16
2023-05-08T09:07:58.894Z,1018.13
2023-05-08T09:08:58.198Z,1018.14
2023-05-08T09:09:58.870Z,1018.15
2023-05-08T09:10:58.216Z,1018.17
2023-05-08T09:11:58.852Z,1018.20
2023-05-08T09:12:58.230Z,1018.20
2023-05-08T09:13:58.826Z,1018.16
2023-05-08T09:14:58.814Z,1018.14
2023-05-08T09:15:58.842Z,1018.15
2023-05-08T09:16:58.793Z,1018.13
2023-05-08T09:17:58.931Z,1018.15
2023-05-08T09:18:58.769Z,1018.11
2023-05-08T09:19:58.761Z,1018.12
2023-05-08T09:20:58.736Z,1018.09
2023-05-08T09:21:58.741Z,1018.13
2023-05-08T09:22:58.741Z,1018.05
2023-05-08T09:23:58.052Z,1018.02
2023-05-08T09:24:58.723Z,1018.06
2023-05-08T09:25:58.693Z,1018.03
2023-05-08T09:26:57.993Z,1018.01
2023-05-08T09:27:57.976Z,1018.01
2023-05-08T09:28:57.976Z,1018.03
2023-05-08T09:29:58.022Z,1018.06
2023-05-08T09:30:58.651Z,1018.04
2023-05-08T09:31:58.035Z,1018.08
2023-05-08T09:32:58.686Z,1018.11
2023-05-08T09:33:57.995Z,1018.10
2023-05-08T09:34:58.029Z,1018.05
2023-05-08T09:35:58.589Z,1018.13
2023-05-08T09:36:57.877Z,1018.08
2023-05-08T09:37:58.562Z,1018.05
2023-05-08T09:38:58.539Z,1018.06
2023-05-08T09:39:57.866Z,1018.09
2023-05-08T09:40:57.836Z,1018.06
2023-05-08T09:41:58.547Z,1018.06
2023-05-08T09:42:58.708Z,1018.05
2023-05-08T09:43:58.494Z,1018.07
2023-05-08T09:44:57.797Z,1018.07
2023-05-08T09:45:58.514Z,1018.06
2023-05-08T09:46:57.770Z,1018.08
2023-05-08T09:47:57.806Z,1018.08
2023-05-08T09:48:58.443Z,1018.07
2023-05-08T09:49:57.829Z,1018.09
2023-05-08T09:50:57.726Z,1018.14
2023-05-08T09:51:58.478Z,1018.10
2023-05-08T09:52:57.742Z,1018.12
2023-05-08T09:53:58.393Z,1018.15
2023-05-08T09:54:57.742Z,1018.10
2023-05-08T09:55:58.373Z,1018.12
2023-05-08T09:56:57.672Z,1018.13
2023-05-08T09:57:57.849Z,1018.11
2023-05-08T09:58:58.344Z,1018.16
2023-05-08T09:59:58.328Z,1018.16
2023-05-08T10:00:58.351Z,1018.17
2023-05-08T10:01:58.560Z,1018.15
2023-05-08T10:02:58.608Z,1018.14
2023-05-08T10:03:58.378Z,1018.17
2023-05-08T10:04:58.384Z,1018.15
2023-05-08T10:05:58.274Z,1018.17
2023-05-08T10:06:58.310Z,1018.11
2023-05-08T10:07:58.333Z,1018.15
2023-05-08T10:08:58.235Z,1018.17
2023-05-08T10:09:57.539Z,1018.20
2023-05-08T10:10:57.531Z,1018.19
2023-05-08T10:11:58.183Z,1018.17
2023-05-08T10:12:58.278Z,1018.21
2023-05-08T10:13:58.173Z,1018.20
2023-05-08T10:14:58.163Z,1018.20
2023-05-08T10:15:58.414Z,1018.20
2023-05-08T10:16:58.184Z,1018.18
2023-05-08T10:17:58.170Z,1018.21
2023-05-08T10:18:58.123Z,1018.22
2023-05-08T10:19:58.114Z,1018.19
2023-05-08T10:20:58.170Z,1018.17
2023-05-08T10:21:58.104Z,1018.17
2023-05-08T10:22:58.078Z,1018.18
2023-05-08T10:23:58.068Z,1018.17
2023-05-08T10:24:58.312Z,1018.15
2023-05-08T10:25:58.311Z,1018.16
2023-05-08T10:27:07.130Z,1018.15
2023-05-08T10:27:58.314Z,1018.11
2023-05-08T10:28:58.262Z,1018.16
2023-05-08T10:29:57.987Z,1018.17
2023-05-08T10:30:57.989Z,1018.15
2023-05-08T10:31:58.253Z,1018.13
2023-05-08T10:32:58.279Z,1018.14
2023-05-08T10:33:58.204Z,1018.13
2023-05-08T10:34:58.204Z,1018.08
2023-05-08T10:35:58.185Z,1018.07
2023-05-08T10:36:58.169Z,1018.09
2023-05-08T10:37:58.187Z,1018.06
2023-05-08T10:38:58.136Z,1018.10
2023-05-08T10:39:57.881Z,1018.10
2023-05-08T10:40:57.921Z,1018.12
2023-05-08T10:41:58.118Z,1018.08
2023-05-08T10:42:58.111Z,1018.10
2023-05-08T10:43:57.841Z,1018.09
2023-05-08T10:44:57.824Z,1018.06
2023-05-08T10:45:58.109Z,1018.05
2023-05-08T10:46:58.028Z,1018.02
2023-05-08T10:47:57.855Z,1018.02
2023-05-08T10:48:57.803Z,1018.01
2023-05-08T10:49:58.073Z,1017.99
2023-05-08T10:50:57.787Z,1018.00
2023-05-08T10:51:58.011Z,1017.95
2023-05-08T10:52:58.032Z,1018.00
2023-05-08T10:53:58.020Z,1017.96
2023-05-08T10:54:57.978Z,1017.94
2023-05-08T10:55:57.750Z,1017.88
2023-05-08T10:56:57.718Z,1017.89
2023-05-08T10:57:57.956Z,1017.88
2023-05-08T10:58:57.735Z,1017.90
2023-05-08T10:59:57.923Z,1017.84
2023-05-08T11:00:57.904Z,1017.82
2023-05-08T11:01:57.715Z,1017.85
2023-05-08T11:02:57.716Z,1017.81
2023-05-08T11:03:57.990Z,1017.78
2023-05-08T11:04:57.854Z,1017.80
2023-05-08T11:05:57.849Z,1017.77
2023-05-08T11:06:56.909Z,1017.82
2023-05-08T11:07:57.855Z,1017.75
2023-05-08T11:09:00.399Z,1017.75
2023-05-08T11:09:57.581Z,1017.80
2023-05-08T11:10:57.563Z,1017.73
2023-05-08T11:11:57.528Z,1017.71
2023-05-08T11:12:57.586Z,1017.69
2023-05-08T11:13:57.530Z,1017.65
2023-05-08T11:14:57.766Z,1017.71
2023-05-08T11:15:57.521Z,1017.65
2023-05-08T11:16:57.474Z,1017.66
2023-05-08T11:17:57.501Z,1017.69
2023-05-08T11:18:56.812Z,1017.71
2023-05-08T11:19:56.780Z,1017.67
2023-05-08T11:20:56.771Z,1017.67
2023-05-08T11:21:57.427Z,1017.65
2023-05-08T11:22:57.430Z,1017.66
2023-05-08T11:23:56.773Z,1017.72
2023-05-08T11:24:57.694Z,1017.71
2023-05-08T11:25:56.727Z,1017.70
2023-05-08T11:26:56.718Z,1017.75
2023-05-08T11:27:56.702Z,1017.70
2023-05-08T11:28:56.698Z,1017.67
2023-05-08T11:29:57.353Z,1017.68
2023-05-08T11:30:57.344Z,1017.69
2023-05-08T11:31:57.426Z,1017.67
2023-05-08T11:32:56.673Z,1017.67
2023-05-08T11:33:56.622Z,1017.72
2023-05-08T11:34:56.611Z,1017.72
2023-05-08T11:35:57.271Z,1017.74
2023-05-08T11:36:56.590Z,1017.66
2023-05-08T11:37:56.578Z,1017.71
2023-05-08T11:38:56.574Z,1017.66
2023-05-08T11:39:56.572Z,1017.65
2023-05-08T11:40:56.651Z,1017.68
2023-05-08T11:41:56.547Z,1017.68
2023-05-08T11:42:57.592Z,1017.64
2023-05-08T11:43:57.207Z,1017.67
2023-05-08T11:44:57.172Z,1017.67
2023-05-08T11:45:56.502Z,1017.68
2023-05-08T11:46:57.257Z,1017.63
2023-05-08T11:47:56.492Z,1017.65
2023-05-08T11:48:56.460Z,1017.61
2023-05-08T11:49:56.494Z,1017.67
2023-05-08T11:50:56.444Z,1017.69
2023-05-08T11:51:57.122Z,1017.78
2023-05-08T11:52:57.107Z,1017.68
2023-05-08T11:53:57.074Z,1017.67
2023-05-08T11:54:57.102Z,1017.67
2023-05-08T11:55:57.075Z,1017.68
2023-05-08T11:56:57.060Z,1017.66
2023-05-08T11:57:57.057Z,1017.65
2023-05-08T11:58:57.031Z,1017.64
2023-05-08T11:59:56.374Z,1017.66
2023-05-08T12:00:56.366Z,1017.61
2023-05-08T12:02:07.937Z,1017.61
2023-05-08T12:02:58.986Z,1017.57
2023-05-08T12:03:57.053Z,1017.56
2023-05-08T12:04:57.103Z,1017.59